Time;durP1;ratioP1;P1;durP2;ratioP2;P2;SDS_P1;SDS_P2;PMS_P1;PMS_P2;Temp;Humidity;BMP_temperature;BMP_pressure;BME280_temperature;BME280_humidity;BME280_pressure;Samples;Min_cycle;Max_cycle;Signal;HPM_P1;HPM_P2
2023/06/22 05:50:16;;;;;;;7.20;6.45;;;;;;;;;;10669376;27;20490;-84
2023/06/22 05:55:18;;;;;;;6.47;5.30;;;;;;;;;;10633842;28;20024;-85
2023/06/22 06:00:28;;;;;;;9.73;8.75;;;;;;;;;;10640838;28;20016;-85
2023/06/22 06:05:30;;;;;;;12.85;11.55;;;;;;;;;;10642489;28;20027;-85
2023/06/22 06:10:32;;;;;;;7.93;7.13;;;;;;;;;;10639616;28;20081;-85
2023/06/22 06:15:33;;;;;;;7.35;6.65;;;;;;;;;;10631894;28;20027;-85
2023/06/22 06:20:34;;;;;;;6.82;5.75;;;;;;;;;;10635490;28;20027;-85
2023/06/22 06:25:41;;;;;;;13.30;11.68;;;;;;;;;;10660682;28;20035;-84
2023/06/22 06:31:23;;;;;;;11.45;10.23;;;;;;;;;;10639117;28;20038;-86
2023/06/22 06:36:28;;;;;;;6.40;5.80;;;;;;;;;;10692659;27;20117;-86
2023/06/22 06:41:36;;;;;;;5.95;5.35;;;;;;;;;;10730114;27;20122;-86
2023/06/22 06:47:02;;;;;;;13.52;12.07;;;;;;;;;;10733905;27;20483;-86
2023/06/22 06:52:50;;;;;;;8.77;7.68;;;;;;;;;;10765459;27;20046;-85
2023/06/22 06:57:57;;;;;;;6.88;5.90;;;;;;;;;;10749934;27;20030;-85
2023/06/22 07:02:58;;;;;;;7.80;6.47;;;;;;;;;;10737635;27;20022;-86
2023/06/22 07:07:59;;;;;;;6.93;5.90;;;;;;;;;;10721896;27;20067;-83
2023/06/22 07:13:01;;;;;;;8.02;6.15;;;;;;;;;;10726488;27;20113;-84
2023/06/22 07:18:02;;;;;;;7.43;6.72;;;;;;;;;;10726024;27;20019;-84
2023/06/22 07:23:03;;;;;;;9.05;8.20;;;;;;;;;;10735759;27;20022;-84
2023/06/22 07:28:05;;;;;;;9.10;8.20;;;;;;;;;;10762551;27;20085;-84
2023/06/22 07:33:08;;;;;;;9.48;8.45;;;;;;;;;;10730743;27;20034;-84
2023/06/22 07:38:09;;;;;;;10.80;9.15;;;;;;;;;;10727701;27;20029;-84
2023/06/22 07:43:10;;;;;;;10.07;9.10;;;;;;;;;;10707616;27;20019;-84
2023/06/22 07:48:11;;;;;;;10.20;9.20;;;;;;;;;;10708585;27;20133;-84
2023/06/22 07:53:12;;;;;;;9.85;8.80;;;;;;;;;;10706408;27;20054;-84
2023/06/22 07:58:13;;;;;;;10.38;8.50;;;;;;;;;;10708916;27;20494;-84
2023/06/22 08:03:14;;;;;;;9.40;8.45;;;;;;;;;;10709870;27;20022;-84
2023/06/22 08:08:15;;;;;;;12.82;10.32;;;;;;;;;;10709697;27;20030;-84
2023/06/22 08:13:16;;;;;;;11.65;8.88;;;;;;;;;;10703808;27;20091;-82
2023/06/22 08:18:17;;;;;;;10.20;9.20;;;;;;;;;;10714819;27;20023;-84
2023/06/22 08:23:18;;;;;;;10.60;8.52;;;;;;;;;;10712088;27;20113;-84
2023/06/22 08:28:19;;;;;;;10.23;8.93;;;;;;;;;;10708772;27;20078;-84
2023/06/22 08:33:23;;;;;;;17.70;14.48;;;;;;;;;;10710315;27;20483;-85
2023/06/22 08:38:24;;;;;;;10.38;9.32;;;;;;;;;;10711177;27;20022;-84
2023/06/22 08:43:25;;;;;;;10.60;7.70;;;;;;;;;;10711038;27;20018;-85
2023/06/22 08:48:26;;;;;;;11.40;9.65;;;;;;;;;;10710332;27;20038;-85
2023/06/22 08:53:27;;;;;;;9.98;8.88;;;;;;;;;;10725295;27;20026;-84
2023/06/22 08:58:28;;;;;;;13.10;11.80;;;;;;;;;;10706949;27;20151;-84
2023/06/22 09:03:29;;;;;;;13.38;11.98;;;;;;;;;;10704378;27;20109;-84
2023/06/22 09:08:30;;;;;;;16.63;14.30;;;;;;;;;;10722690;27;20071;-84
2023/06/22 09:13:32;;;;;;;9.07;8.18;;;;;;;;;;10705134;27;20037;-84
2023/06/22 09:18:34;;;;;;;11.00;9.90;;;;;;;;;;10705013;27;20030;-85
2023/06/22 09:23:35;;;;;;;17.08;15.27;;;;;;;;;;10720584;27;20027;-83
2023/06/22 09:28:36;;;;;;;12.55;10.77;;;;;;;;;;10725711;27;20105;-84
2023/06/22 09:33:41;;;;;;;13.48;12.20;;;;;;;;;;10726085;27;20026;-84
2023/06/22 09:38:42;;;;;;;13.15;11.27;;;;;;;;;;10706514;27;20380;-84
2023/06/22 09:43:43;;;;;;;15.07;12.82;;;;;;;;;;10705761;27;20038;-84
2023/06/22 09:48:44;;;;;;;15.13;13.40;;;;;;;;;;10726456;27;20041;-83
2023/06/22 09:53:45;;;;;;;14.90;13.50;;;;;;;;;;10712773;27;20049;-82
2023/06/22 09:58:46;;;;;;;11.20;10.10;;;;;;;;;;10735889;27;20038;-83
2023/06/22 10:03:47;;;;;;;10.95;9.95;;;;;;;;;;10712041;27;20447;-83
2023/06/22 10:08:50;;;;;;;11.60;10.50;;;;;;;;;;10707850;27;20324;-84
2023/06/22 10:13:54;;;;;;;10.45;9.45;;;;;;;;;;10708363;27;20183;-86
2023/06/22 10:18:58;;;;;;;13.32;11.63;;;;;;;;;;10709749;27;20060;-85
2023/06/22 10:24:24;;;;;;;13.50;10.95;;;;;;;;;;10709746;27;20364;-84
2023/06/22 10:35:07;;;;;;;13.63;12.20;;;;;;;;;;10726819;27;20487;-85
2023/06/22 10:40:09;;;;;;;12.93;11.05;;;;;;;;;;10737676;27;20086;-83
2023/06/22 10:45:10;;;;;;;12.45;11.02;;;;;;;;;;10722123;27;20035;-84
2023/06/22 10:50:11;;;;;;;13.85;12.38;;;;;;;;;;10721401;27;20372;-85
2023/06/22 10:55:12;;;;;;;13.10;11.40;;;;;;;;;;10735593;27;20010;-87
2023/06/22 11:00:14;;;;;;;10.63;9.63;;;;;;;;;;10719029;27;20141;-86
2023/06/22 11:05:16;;;;;;;12.15;10.85;;;;;;;;;;10701145;27;20122;-87
2023/06/22 11:10:17;;;;;;;22.75;19.48;;;;;;;;;;10707852;27;20019;-87
2023/06/22 11:15:18;;;;;;;11.38;10.27;;;;;;;;;;10732918;27;20093;-86
2023/06/22 11:20:19;;;;;;;10.85;9.75;;;;;;;;;;10722336;27;20045;-86
2023/06/22 11:25:20;;;;;;;14.88;12.57;;;;;;;;;;10724605;27;20047;-86
2023/06/22 11:30:21;;;;;;;12.05;10.95;;;;;;;;;;10735426;27;20485;-84
2023/06/22 11:35:22;;;;;;;15.70;14.10;;;;;;;;;;10736428;27;20459;-85
2023/06/22 11:40:23;;;;;;;11.95;10.50;;;;;;;;;;10724670;27;20030;-84
2023/06/22 11:45:43;;;;;;;9.07;8.18;;;;;;;;;;10712251;27;20022;-84
2023/06/22 11:50:53;;;;;;;16.05;11.88;;;;;;;;;;10717009;27;20409;-84
2023/06/22 11:56:45;;;;;;;14.32;12.82;;;;;;;;;;10722539;27;20027;-86
2023/06/22 12:01:47;;;;;;;9.57;8.63;;;;;;;;;;10732815;27;20106;-84
2023/06/22 12:07:07;;;;;;;10.23;8.88;;;;;;;;;;10707674;27;20104;-85
2023/06/22 12:12:13;;;;;;;12.85;9.88;;;;;;;;;;10707942;27;20028;-85
2023/06/22 12:17:20;;;;;;;13.88;12.52;;;;;;;;;;10700216;27;20478;-85
2023/06/22 12:22:51;;;;;;;13.05;11.75;;;;;;;;;;10701175;27;20072;-85
2023/06/22 12:27:53;;;;;;;18.73;16.83;;;;;;;;;;10698472;27;20027;-86
2023/06/22 12:32:54;;;;;;;11.60;10.40;;;;;;;;;;10703918;27;20029;-85
2023/06/22 12:38:03;;;;;;;13.82;11.68;;;;;;;;;;10701402;27;20050;-86
2023/06/22 12:43:07;;;;;;;15.25;13.70;;;;;;;;;;10721310;27;20027;-86
2023/06/22 12:48:08;;;;;;;14.45;12.10;;;;;;;;;;10715702;27;20053;-86
2023/06/22 12:53:09;;;;;;;18.80;16.77;;;;;;;;;;10715073;27;20036;-85
2023/06/22 12:58:17;;;;;;;14.32;11.35;;;;;;;;;;10701520;27;20061;-85
2023/06/22 13:03:39;;;;;;;13.25;11.82;;;;;;;;;;10605700;27;20097;-85
2023/06/22 13:08:40;;;;;;;17.40;15.70;;;;;;;;;;10697950;27;20128;-85
2023/06/22 13:13:41;;;;;;;15.05;12.10;;;;;;;;;;10718268;27;20046;-85
2023/06/22 13:18:43;;;;;;;13.13;11.73;;;;;;;;;;10699727;27;20372;-85
2023/06/22 13:23:44;;;;;;;14.30;12.90;;;;;;;;;;10708058;27;20018;-85
2023/06/22 13:28:46;;;;;;;12.90;10.63;;;;;;;;;;10721570;27;20022;-86
2023/06/22 13:33:48;;;;;;;13.25;11.95;;;;;;;;;;10705473;27;20105;-86
2023/06/22 13:38:50;;;;;;;13.75;12.43;;;;;;;;;;10718131;27;20026;-85
2023/06/22 13:43:52;;;;;;;14.55;13.18;;;;;;;;;;10729374;27;20022;-86
2023/06/22 13:48:53;;;;;;;12.48;11.27;;;;;;;;;;10699399;27;20041;-86
2023/06/22 13:53:54;;;;;;;16.08;14.38;;;;;;;;;;10700238;27;20097;-84
2023/06/22 13:58:55;;;;;;;13.75;12.45;;;;;;;;;;10704292;27;20026;-85
2023/06/22 14:03:56;;;;;;;13.18;11.82;;;;;;;;;;10701027;27;20579;-84
2023/06/22 14:08:57;;;;;;;19.30;17.27;;;;;;;;;;10706951;27;20022;-84
2023/06/22 14:13:58;;;;;;;17.63;15.93;;;;;;;;;;10709824;27;20090;-84
2023/06/22 14:18:59;;;;;;;13.82;12.45;;;;;;;;;;10714206;27;20049;-83
2023/06/22 14:24:00;;;;;;;12.98;11.68;;;;;;;;;;10711346;27;20029;-84
2023/06/22 14:29:01;;;;;;;13.02;11.75;;;;;;;;;;10713346;27;20058;-84
2023/06/22 14:34:05;;;;;;;13.75;12.32;;;;;;;;;;10731855;27;20027;-84
2023/06/22 14:39:06;;;;;;;12.85;11.55;;;;;;;;;;10731544;27;20018;-84
2023/06/22 14:44:08;;;;;;;12.00;10.80;;;;;;;;;;10712600;27;20022;-84
2023/06/22 14:49:09;;;;;;;14.15;12.65;;;;;;;;;;10712346;27;20038;-84
2023/06/22 14:54:10;;;;;;;14.60;13.20;;;;;;;;;;10754184;27;20037;-84
2023/06/22 14:59:11;;;;;;;13.45;12.02;;;;;;;;;;10735106;27;20046;-84
2023/06/22 15:04:12;;;;;;;14.02;12.68;;;;;;;;;;10718824;27;20022;-84
2023/06/22 15:09:13;;;;;;;13.55;12.35;;;;;;;;;;10732974;27;20069;-84
2023/06/22 15:14:14;;;;;;;11.90;10.80;;;;;;;;;;10731306;27;20388;-84
2023/06/22 15:19:15;;;;;;;14.98;13.38;;;;;;;;;;10712777;27;20036;-84
2023/06/22 15:24:16;;;;;;;19.63;17.73;;;;;;;;;;10728509;27;20028;-83
2023/06/22 15:29:17;;;;;;;14.77;13.27;;;;;;;;;;10709648;27;20105;-84
2023/06/22 15:34:19;;;;;;;19.83;17.80;;;;;;;;;;10722639;27;20030;-87
2023/06/22 15:39:20;;;;;;;16.45;13.93;;;;;;;;;;10722703;27;20059;-86
2023/06/22 15:44:21;;;;;;;12.90;11.20;;;;;;;;;;10700012;27;20026;-84
2023/06/22 15:49:22;;;;;;;13.32;11.90;;;;;;;;;;10698598;27;20398;-87
2023/06/22 15:54:23;;;;;;;13.52;12.23;;;;;;;;;;10716679;27;20094;-88
2023/06/22 15:59:24;;;;;;;16.50;14.80;;;;;;;;;;10697605;27;20018;-88
2023/06/22 16:04:25;;;;;;;21.60;19.27;;;;;;;;;;10703019;27;20060;-88
2023/06/22 16:09:27;;;;;;;20.38;16.58;;;;;;;;;;10736334;27;20026;-87
2023/06/22 16:14:28;;;;;;;15.50;12.20;;;;;;;;;;10714757;27;20057;-87
2023/06/22 16:19:29;;;;;;;16.13;12.75;;;;;;;;;;10696470;27;20118;-88
2023/06/22 16:24:30;;;;;;;12.18;10.98;;;;;;;;;;10696139;27;20058;-85
2023/06/22 16:29:31;;;;;;;12.90;9.70;;;;;;;;;;10706010;27;20115;-83
2023/06/22 16:35:00;;;;;;;15.27;10.70;;;;;;;;;;10695232;27;20043;-87
2023/06/22 16:40:29;;;;;;;9.57;8.50;;;;;;;;;;10714147;27;20507;-89
2023/06/22 16:51:50;;;;;;;8.55;7.68;;;;;;;;;;10714622;27;20038;-89
2023/06/22 16:57:17;;;;;;;10.77;9.65;;;;;;;;;;10694763;27;20476;-89
2023/06/22 17:31:10;;;;;;;11.13;9.95;;;;;;;;;;10686770;22;20093;-83
2023/06/22 17:36:14;;;;;;;10.05;8.77;;;;;;;;;;10636782;27;20031;-85
2023/06/22 17:41:15;;;;;;;11.48;9.40;;;;;;;;;;10635774;27;20027;-84
2023/06/22 17:46:16;;;;;;;11.13;9.95;;;;;;;;;;10636932;27;20091;-84
2023/06/22 17:51:18;;;;;;;13.57;12.18;;;;;;;;;;10638896;28;20031;-84
2023/06/22 17:56:19;;;;;;;13.27;11.95;;;;;;;;;;10634479;28;20024;-83
2023/06/22 18:01:28;;;;;;;9.15;8.25;;;;;;;;;;10637739;28;20028;-84
2023/06/22 18:06:30;;;;;;;13.23;11.13;;;;;;;;;;10637084;28;20030;-83
2023/06/22 18:11:35;;;;;;;12.70;10.88;;;;;;;;;;10637177;28;20184;-83
2023/06/22 18:16:37;;;;;;;13.38;11.98;;;;;;;;;;10638564;28;20024;-84
2023/06/22 18:21:38;;;;;;;12.75;11.40;;;;;;;;;;10639938;28;20107;-84
2023/06/22 18:26:40;;;;;;;11.57;10.48;;;;;;;;;;10639024;28;20024;-84
2023/06/22 18:31:42;;;;;;;13.07;10.30;;;;;;;;;;10637740;28;20031;-83
2023/06/22 18:36:46;;;;;;;13.30;11.90;;;;;;;;;;10637422;28;20503;-84
2023/06/22 18:41:57;;;;;;;12.05;10.85;;;;;;;;;;10640035;28;20019;-84
2023/06/22 18:47:00;;;;;;;10.85;9.63;;;;;;;;;;10642209;28;20047;-84
2023/06/22 18:52:05;;;;;;;12.48;11.27;;;;;;;;;;10637882;28;20031;-84
2023/06/22 18:57:13;;;;;;;11.93;10.73;;;;;;;;;;10645614;27;20020;-83
2023/06/22 19:02:34;;;;;;;10.55;9.45;;;;;;;;;;10653472;27;20050;-84
2023/06/22 19:07:58;;;;;;;11.13;10.02;;;;;;;;;;10656069;27;20007;-84
2023/06/22 19:13:11;;;;;;;15.35;13.85;;;;;;;;;;10667085;27;20026;-83
